sensor_id;sensor_type;location;lat;lon;timestamp;P1;durP1;ratioP1;P2;durP2;ratioP2
36191;SDS011;22233;42.708;23.360;2023-08-06T00:00:38;5.80;;;3.53;;
36191;SDS011;22233;42.708;23.360;2023-08-06T00:03:03;4.55;;;3.00;;
36191;SDS011;22233;42.708;23.360;2023-08-06T00:05:29;5.10;;;3.13;;
36191;SDS011;22233;42.708;23.360;2023-08-06T00:07:54;4.32;;;3.35;;
36191;SDS011;22233;42.708;23.360;2023-08-06T00:10:20;4.88;;;3.42;;
36191;SDS011;22233;42.708;23.360;2023-08-06T00:12:45;4.85;;;3.45;;
36191;SDS011;22233;42.708;23.360;2023-08-06T00:15:11;4.93;;;3.53;;
36191;SDS011;22233;42.708;23.360;2023-08-06T00:17:36;5.38;;;4.00;;
36191;SDS011;22233;42.708;23.360;2023-08-06T00:20:02;4.28;;;3.80;;
36191;SDS011;22233;42.708;23.360;2023-08-06T00:22:34;4.93;;;3.97;;
36191;SDS011;22233;42.708;23.360;2023-08-06T00:25:01;6.00;;;4.88;;
36191;SDS011;22233;42.708;23.360;2023-08-06T00:27:27;6.63;;;4.85;;
36191;SDS011;22233;42.708;23.360;2023-08-06T00:29:52;8.82;;;5.47;;
36191;SDS011;22233;42.708;23.360;2023-08-06T00:32:17;7.05;;;4.20;;
36191;SDS011;22233;42.708;23.360;2023-08-06T00:34:43;5.03;;;3.88;;
36191;SDS011;22233;42.708;23.360;2023-08-06T00:37:08;5.90;;;3.88;;
36191;SDS011;22233;42.708;23.360;2023-08-06T00:39:34;4.07;;;3.63;;
36191;SDS011;22233;42.708;23.360;2023-08-06T00:41:59;4.32;;;3.45;;
36191;SDS011;22233;42.708;23.360;2023-08-06T00:44:25;5.00;;;3.38;;
36191;SDS011;22233;42.708;23.360;2023-08-06T00:46:50;4.43;;;3.55;;
36191;SDS011;22233;42.708;23.360;2023-08-06T00:49:16;4.57;;;3.30;;
36191;SDS011;22233;42.708;23.360;2023-08-06T00:51:42;4.88;;;3.50;;
36191;SDS011;22233;42.708;23.360;2023-08-06T00:54:08;3.83;;;3.40;;
36191;SDS011;22233;42.708;23.360;2023-08-06T00:56:34;9.27;;;4.00;;
36191;SDS011;22233;42.708;23.360;2023-08-06T00:59:03;5.75;;;4.68;;
36191;SDS011;22233;42.708;23.360;2023-08-06T01:01:30;6.70;;;4.72;;
36191;SDS011;22233;42.708;23.360;2023-08-06T01:03:56;7.68;;;4.28;;
36191;SDS011;22233;42.708;23.360;2023-08-06T01:06:23;8.07;;;5.07;;
36191;SDS011;22233;42.708;23.360;2023-08-06T01:15:18;6.47;;;5.82;;
36191;SDS011;22233;42.708;23.360;2023-08-06T01:17:47;5.90;;;5.30;;
36191;SDS011;22233;42.708;23.360;2023-08-06T01:20:13;8.40;;;6.22;;
36191;SDS011;22233;42.708;23.360;2023-08-06T01:22:38;6.07;;;5.47;;
36191;SDS011;22233;42.708;23.360;2023-08-06T01:25:04;5.97;;;4.85;;
36191;SDS011;22233;42.708;23.360;2023-08-06T01:27:33;5.35;;;4.85;;
36191;SDS011;22233;42.708;23.360;2023-08-06T01:30:08;5.32;;;4.18;;
36191;SDS011;22233;42.708;23.360;2023-08-06T01:32:38;5.25;;;4.20;;
36191;SDS011;22233;42.708;23.360;2023-08-06T01:35:08;6.75;;;4.50;;
36191;SDS011;22233;42.708;23.360;2023-08-06T01:37:36;6.13;;;4.40;;
36191;SDS011;22233;42.708;23.360;2023-08-06T01:40:05;5.65;;;4.20;;
36191;SDS011;22233;42.708;23.360;2023-08-06T01:42:39;6.00;;;4.32;;
36191;SDS011;22233;42.708;23.360;2023-08-06T01:45:06;4.38;;;3.60;;
36191;SDS011;22233;42.708;23.360;2023-08-06T01:47:32;4.10;;;3.53;;
36191;SDS011;22233;42.708;23.360;2023-08-06T01:49:58;6.63;;;4.03;;
36191;SDS011;22233;42.708;23.360;2023-08-06T01:52:23;6.82;;;4.30;;
36191;SDS011;22233;42.708;23.360;2023-08-06T01:54:49;4.70;;;3.97;;
36191;SDS011;22233;42.708;23.360;2023-08-06T01:57:14;5.85;;;3.97;;
36191;SDS011;22233;42.708;23.360;2023-08-06T01:59:39;6.22;;;4.07;;
36191;SDS011;22233;42.708;23.360;2023-08-06T02:02:05;6.35;;;4.63;;
36191;SDS011;22233;42.708;23.360;2023-08-06T02:04:30;6.82;;;4.30;;
36191;SDS011;22233;42.708;23.360;2023-08-06T02:06:56;5.18;;;4.05;;
36191;SDS011;22233;42.708;23.360;2023-08-06T02:09:21;6.05;;;4.13;;
36191;SDS011;22233;42.708;23.360;2023-08-06T02:11:46;5.90;;;3.80;;
36191;SDS011;22233;42.708;23.360;2023-08-06T02:14:12;6.75;;;3.80;;
36191;SDS011;22233;42.708;23.360;2023-08-06T02:16:37;6.10;;;4.07;;
36191;SDS011;22233;42.708;23.360;2023-08-06T02:19:03;4.50;;;3.70;;
36191;SDS011;22233;42.708;23.360;2023-08-06T02:21:28;6.35;;;4.40;;
36191;SDS011;22233;42.708;23.360;2023-08-06T02:23:54;4.20;;;3.63;;
36191;SDS011;22233;42.708;23.360;2023-08-06T02:26:20;6.03;;;4.05;;
36191;SDS011;22233;42.708;23.360;2023-08-06T02:28:45;4.32;;;3.58;;
36191;SDS011;22233;42.708;23.360;2023-08-06T02:31:10;5.90;;;3.97;;
36191;SDS011;22233;42.708;23.360;2023-08-06T02:33:36;7.88;;;4.13;;
36191;SDS011;22233;42.708;23.360;2023-08-06T02:36:02;4.43;;;3.85;;
36191;SDS011;22233;42.708;23.360;2023-08-06T02:38:31;6.53;;;3.42;;
36191;SDS011;22233;42.708;23.360;2023-08-06T02:40:57;7.07;;;4.28;;
36191;SDS011;22233;42.708;23.360;2023-08-06T02:43:23;8.95;;;5.03;;
36191;SDS011;22233;42.708;23.360;2023-08-06T02:45:48;9.68;;;4.43;;
36191;SDS011;22233;42.708;23.360;2023-08-06T02:48:14;6.72;;;3.80;;
36191;SDS011;22233;42.708;23.360;2023-08-06T02:50:39;5.85;;;3.80;;
36191;SDS011;22233;42.708;23.360;2023-08-06T02:53:09;7.40;;;4.60;;
36191;SDS011;22233;42.708;23.360;2023-08-06T02:55:34;3.97;;;3.53;;
36191;SDS011;22233;42.708;23.360;2023-08-06T02:58:00;5.25;;;3.88;;
36191;SDS011;22233;42.708;23.360;2023-08-06T03:00:26;6.63;;;4.53;;
36191;SDS011;22233;42.708;23.360;2023-08-06T03:02:52;7.47;;;3.90;;
36191;SDS011;22233;42.708;23.360;2023-08-06T03:05:18;6.65;;;4.47;;
36191;SDS011;22233;42.708;23.360;2023-08-06T03:07:43;10.48;;;4.32;;
36191;SDS011;22233;42.708;23.360;2023-08-06T03:10:09;6.78;;;4.10;;
36191;SDS011;22233;42.708;23.360;2023-08-06T03:12:34;7.15;;;4.85;;
36191;SDS011;22233;42.708;23.360;2023-08-06T03:15:00;10.23;;;4.70;;
36191;SDS011;22233;42.708;23.360;2023-08-06T03:17:25;8.40;;;6.10;;
36191;SDS011;22233;42.708;23.360;2023-08-06T03:19:51;6.18;;;5.60;;
36191;SDS011;22233;42.708;23.360;2023-08-06T03:22:16;5.80;;;4.80;;
36191;SDS011;22233;42.708;23.360;2023-08-06T03:24:42;9.70;;;5.60;;
36191;SDS011;22233;42.708;23.360;2023-08-06T03:27:07;6.50;;;5.10;;
36191;SDS011;22233;42.708;23.360;2023-08-06T03:29:32;10.25;;;6.00;;
36191;SDS011;22233;42.708;23.360;2023-08-06T03:31:58;6.80;;;5.43;;
36191;SDS011;22233;42.708;23.360;2023-08-06T03:34:26;8.48;;;5.88;;
36191;SDS011;22233;42.708;23.360;2023-08-06T03:36:51;9.30;;;6.75;;
36191;SDS011;22233;42.708;23.360;2023-08-06T03:39:17;8.15;;;6.47;;
36191;SDS011;22233;42.708;23.360;2023-08-06T03:41:42;8.05;;;5.78;;
36191;SDS011;22233;42.708;23.360;2023-08-06T03:44:08;6.88;;;5.75;;
36191;SDS011;22233;42.708;23.360;2023-08-06T03:46:33;9.02;;;6.68;;
36191;SDS011;22233;42.708;23.360;2023-08-06T03:49:01;8.43;;;6.57;;
36191;SDS011;22233;42.708;23.360;2023-08-06T03:51:27;9.20;;;7.80;;
36191;SDS011;22233;42.708;23.360;2023-08-06T03:53:52;9.60;;;8.07;;
36191;SDS011;22233;42.708;23.360;2023-08-06T03:56:18;9.60;;;8.65;;
36191;SDS011;22233;42.708;23.360;2023-08-06T03:58:43;9.23;;;8.25;;
36191;SDS011;22233;42.708;23.360;2023-08-06T04:01:09;10.07;;;7.40;;
36191;SDS011;22233;42.708;23.360;2023-08-06T04:03:34;6.75;;;6.15;;
36191;SDS011;22233;42.708;23.360;2023-08-06T04:05:59;7.13;;;6.03;;
36191;SDS011;22233;42.708;23.360;2023-08-06T04:08:26;8.82;;;6.57;;
36191;SDS011;22233;42.708;23.360;2023-08-06T04:10:52;7.65;;;6.95;;
36191;SDS011;22233;42.708;23.360;2023-08-06T04:13:18;7.70;;;7.00;;
36191;SDS011;22233;42.708;23.360;2023-08-06T04:15:44;6.80;;;6.13;;
36191;SDS011;22233;42.708;23.360;2023-08-06T04:18:09;9.32;;;5.85;;
36191;SDS011;22233;42.708;23.360;2023-08-06T04:20:35;5.95;;;5.30;;
36191;SDS011;22233;42.708;23.360;2023-08-06T04:23:07;7.65;;;5.65;;
36191;SDS011;22233;42.708;23.360;2023-08-06T04:25:32;6.60;;;4.57;;
36191;SDS011;22233;42.708;23.360;2023-08-06T04:27:57;5.75;;;5.00;;
36191;SDS011;22233;42.708;23.360;2023-08-06T04:30:23;5.85;;;5.25;;
36191;SDS011;22233;42.708;23.360;2023-08-06T04:32:49;5.75;;;5.22;;
36191;SDS011;22233;42.708;23.360;2023-08-06T04:35:15;5.40;;;4.90;;
36191;SDS011;22233;42.708;23.360;2023-08-06T04:37:41;6.05;;;4.97;;
36191;SDS011;22233;42.708;23.360;2023-08-06T04:40:06;5.85;;;5.35;;
36191;SDS011;22233;42.708;23.360;2023-08-06T04:42:32;5.75;;;5.15;;
36191;SDS011;22233;42.708;23.360;2023-08-06T04:44:57;6.35;;;5.35;;
36191;SDS011;22233;42.708;23.360;2023-08-06T04:47:23;6.93;;;5.50;;
36191;SDS011;22233;42.708;23.360;2023-08-06T04:49:50;6.18;;;5.35;;
36191;SDS011;22233;42.708;23.360;2023-08-06T04:52:16;6.00;;;5.20;;
36191;SDS011;22233;42.708;23.360;2023-08-06T04:54:43;5.57;;;4.97;;
36191;SDS011;22233;42.708;23.360;2023-08-06T04:57:08;5.00;;;4.50;;
36191;SDS011;22233;42.708;23.360;2023-08-06T04:59:34;6.07;;;4.32;;
36191;SDS011;22233;42.708;23.360;2023-08-06T05:01:59;6.68;;;5.20;;
36191;SDS011;22233;42.708;23.360;2023-08-06T05:04:24;5.07;;;4.53;;
36191;SDS011;22233;42.708;23.360;2023-08-06T05:06:50;5.88;;;4.45;;
36191;SDS011;22233;42.708;23.360;2023-08-06T05:09:15;5.45;;;4.25;;
36191;SDS011;22233;42.708;23.360;2023-08-06T05:11:41;6.85;;;4.35;;
36191;SDS011;22233;42.708;23.360;2023-08-06T05:14:06;6.07;;;3.67;;
36191;SDS011;22233;42.708;23.360;2023-08-06T05:16:31;4.43;;;3.60;;
36191;SDS011;22233;42.708;23.360;2023-08-06T05:18:57;4.50;;;3.17;;
36191;SDS011;22233;42.708;23.360;2023-08-06T05:21:22;3.65;;;3.17;;
36191;SDS011;22233;42.708;23.360;2023-08-06T05:23:48;3.20;;;2.83;;
36191;SDS011;22233;42.708;23.360;2023-08-06T05:26:13;4.88;;;2.97;;
36191;SDS011;22233;42.708;23.360;2023-08-06T05:28:43;3.03;;;2.72;;
36191;SDS011;22233;42.708;23.360;2023-08-06T05:31:09;3.38;;;3.08;;
36191;SDS011;22233;42.708;23.360;2023-08-06T05:33:34;4.15;;;3.25;;
36191;SDS011;22233;42.708;23.360;2023-08-06T05:35:59;3.67;;;3.28;;
36191;SDS011;22233;42.708;23.360;2023-08-06T05:38:25;3.33;;;3.03;;
36191;SDS011;22233;42.708;23.360;2023-08-06T05:40:50;4.78;;;2.85;;
36191;SDS011;22233;42.708;23.360;2023-08-06T05:43:16;5.18;;;3.13;;
36191;SDS011;22233;42.708;23.360;2023-08-06T05:45:45;4.05;;;3.70;;
36191;SDS011;22233;42.708;23.360;2023-08-06T05:48:11;3.97;;;3.53;;
36191;SDS011;22233;42.708;23.360;2023-08-06T05:50:37;4.20;;;3.70;;
36191;SDS011;22233;42.708;23.360;2023-08-06T05:53:02;4.20;;;3.10;;
36191;SDS011;22233;42.708;23.360;2023-08-06T05:55:28;3.45;;;3.15;;
36191;SDS011;22233;42.708;23.360;2023-08-06T05:57:53;4.35;;;3.95;;
36191;SDS011;22233;42.708;23.360;2023-08-06T06:00:20;3.83;;;3.53;;
36191;SDS011;22233;42.708;23.360;2023-08-06T06:02:46;3.88;;;3.47;;
36191;SDS011;22233;42.708;23.360;2023-08-06T06:05:11;5.45;;;3.95;;
36191;SDS011;22233;42.708;23.360;2023-08-06T06:07:37;5.10;;;4.70;;
36191;SDS011;22233;42.708;23.360;2023-08-06T06:10:02;5.18;;;4.78;;
36191;SDS011;22233;42.708;23.360;2023-08-06T06:12:28;5.75;;;2.90;;
36191;SDS011;22233;42.708;23.360;2023-08-06T06:14:53;2.63;;;2.22;;
36191;SDS011;22233;42.708;23.360;2023-08-06T06:17:18;4.30;;;2.85;;
36191;SDS011;22233;42.708;23.360;2023-08-06T06:19:44;3.88;;;3.45;;
36191;SDS011;22233;42.708;23.360;2023-08-06T06:22:09;8.88;;;5.28;;
36191;SDS011;22233;42.708;23.360;2023-08-06T06:24:35;6.20;;;5.00;;
36191;SDS011;22233;42.708;23.360;2023-08-06T06:27:00;4.55;;;3.55;;
36191;SDS011;22233;42.708;23.360;2023-08-06T06:29:25;4.38;;;2.90;;
36191;SDS011;22233;42.708;23.360;2023-08-06T06:31:51;3.63;;;2.00;;
36191;SDS011;22233;42.708;23.360;2023-08-06T06:34:16;4.45;;;2.00;;
36191;SDS011;22233;42.708;23.360;2023-08-06T06:36:42;3.30;;;1.70;;
36191;SDS011;22233;42.708;23.360;2023-08-06T06:39:07;2.20;;;1.52;;
36191;SDS011;22233;42.708;23.360;2023-08-06T06:41:33;2.38;;;1.77;;
36191;SDS011;22233;42.708;23.360;2023-08-06T06:43:58;2.20;;;1.70;;
36191;SDS011;22233;42.708;23.360;2023-08-06T06:46:24;2.70;;;1.88;;
36191;SDS011;22233;42.708;23.360;2023-08-06T06:48:49;1.77;;;1.48;;
36191;SDS011;22233;42.708;23.360;2023-08-06T06:51:15;2.80;;;1.33;;
36191;SDS011;22233;42.708;23.360;2023-08-06T06:53:40;2.97;;;1.60;;
36191;SDS011;22233;42.708;23.360;2023-08-06T06:56:05;3.47;;;2.03;;
36191;SDS011;22233;42.708;23.360;2023-08-06T06:58:31;1.90;;;1.63;;
36191;SDS011;22233;42.708;23.360;2023-08-06T07:00:57;3.72;;;2.00;;
36191;SDS011;22233;42.708;23.360;2023-08-06T07:03:23;2.10;;;1.90;;
36191;SDS011;22233;42.708;23.360;2023-08-06T07:05:49;1.80;;;1.70;;
36191;SDS011;22233;42.708;23.360;2023-08-06T07:08:14;2.78;;;2.20;;
36191;SDS011;22233;42.708;23.360;2023-08-06T07:10:40;3.20;;;2.10;;
36191;SDS011;22233;42.708;23.360;2023-08-06T07:13:06;3.20;;;2.20;;
36191;SDS011;22233;42.708;23.360;2023-08-06T07:15:32;2.75;;;2.30;;
36191;SDS011;22233;42.708;23.360;2023-08-06T07:17:57;3.65;;;1.92;;
36191;SDS011;22233;42.708;23.360;2023-08-06T07:20:23;3.97;;;2.50;;
36191;SDS011;22233;42.708;23.360;2023-08-06T07:22:48;3.75;;;2.35;;
36191;SDS011;22233;42.708;23.360;2023-08-06T07:25:15;3.72;;;2.00;;
36191;SDS011;22233;42.708;23.360;2023-08-06T07:27:41;2.53;;;2.03;;
36191;SDS011;22233;42.708;23.360;2023-08-06T07:30:06;3.20;;;2.22;;
36191;SDS011;22233;42.708;23.360;2023-08-06T07:32:32;2.75;;;1.90;;
36191;SDS011;22233;42.708;23.360;2023-08-06T07:34:58;4.85;;;2.03;;
36191;SDS011;22233;42.708;23.360;2023-08-06T07:37:28;2.38;;;1.55;;
36191;SDS011;22233;42.708;23.360;2023-08-06T07:39:54;2.75;;;2.10;;
36191;SDS011;22233;42.708;23.360;2023-08-06T07:42:20;4.30;;;2.20;;
36191;SDS011;22233;42.708;23.360;2023-08-06T07:44:52;2.35;;;1.90;;
36191;SDS011;22233;42.708;23.360;2023-08-06T07:47:19;2.85;;;2.00;;
36191;SDS011;22233;42.708;23.360;2023-08-06T07:49:44;2.45;;;1.92;;
36191;SDS011;22233;42.708;23.360;2023-08-06T07:52:10;5.28;;;2.58;;
36191;SDS011;22233;42.708;23.360;2023-08-06T07:54:36;2.15;;;1.90;;
36191;SDS011;22233;42.708;23.360;2023-08-06T07:57:01;3.17;;;2.25;;
36191;SDS011;22233;42.708;23.360;2023-08-06T07:59:27;4.22;;;2.40;;
36191;SDS011;22233;42.708;23.360;2023-08-06T08:01:52;3.00;;;2.35;;
36191;SDS011;22233;42.708;23.360;2023-08-06T08:04:17;6.90;;;2.40;;
36191;SDS011;22233;42.708;23.360;2023-08-06T08:06:43;4.82;;;2.40;;
36191;SDS011;22233;42.708;23.360;2023-08-06T08:09:08;2.67;;;2.20;;
36191;SDS011;22233;42.708;23.360;2023-08-06T08:11:34;3.22;;;2.28;;
36191;SDS011;22233;42.708;23.360;2023-08-06T08:13:59;3.15;;;2.22;;
36191;SDS011;22233;42.708;23.360;2023-08-06T08:16:25;2.28;;;2.08;;
36191;SDS011;22233;42.708;23.360;2023-08-06T08:18:50;3.03;;;2.22;;
36191;SDS011;22233;42.708;23.360;2023-08-06T08:21:15;2.72;;;2.22;;
36191;SDS011;22233;42.708;23.360;2023-08-06T08:23:41;2.40;;;2.20;;
36191;SDS011;22233;42.708;23.360;2023-08-06T08:26:08;2.60;;;2.40;;
36191;SDS011;22233;42.708;23.360;2023-08-06T08:28:34;3.20;;;2.33;;
36191;SDS011;22233;42.708;23.360;2023-08-06T08:30:59;3.53;;;2.40;;
36191;SDS011;22233;42.708;23.360;2023-08-06T08:33:25;3.67;;;2.50;;
36191;SDS011;22233;42.708;23.360;2023-08-06T08:35:50;4.25;;;2.25;;
36191;SDS011;22233;42.708;23.360;2023-08-06T08:38:15;4.65;;;2.60;;
36191;SDS011;22233;42.708;23.360;2023-08-06T08:40:43;4.32;;;2.53;;
36191;SDS011;22233;42.708;23.360;2023-08-06T08:43:12;4.35;;;2.35;;
36191;SDS011;22233;42.708;23.360;2023-08-06T08:45:39;4.53;;;3.20;;
36191;SDS011;22233;42.708;23.360;2023-08-06T08:48:07;4.65;;;2.17;;
36191;SDS011;22233;42.708;23.360;2023-08-06T08:50:36;2.80;;;2.05;;
36191;SDS011;22233;42.708;23.360;2023-08-06T08:53:01;5.30;;;3.08;;
36191;SDS011;22233;42.708;23.360;2023-08-06T08:55:28;3.30;;;2.60;;
36191;SDS011;22233;42.708;23.360;2023-08-06T08:57:53;3.35;;;2.25;;
36191;SDS011;22233;42.708;23.360;2023-08-06T09:00:19;2.65;;;2.42;;
36191;SDS011;22233;42.708;23.360;2023-08-06T09:02:44;2.83;;;2.35;;
36191;SDS011;22233;42.708;23.360;2023-08-06T09:05:11;2.25;;;2.05;;
36191;SDS011;22233;42.708;23.360;2023-08-06T09:07:40;4.03;;;2.33;;
36191;SDS011;22233;42.708;23.360;2023-08-06T09:10:10;2.70;;;2.28;;
36191;SDS011;22233;42.708;23.360;2023-08-06T09:12:38;4.60;;;2.13;;
36191;SDS011;22233;42.708;23.360;2023-08-06T09:15:04;2.55;;;2.33;;
36191;SDS011;22233;42.708;23.360;2023-08-06T09:17:29;2.40;;;2.20;;
36191;SDS011;22233;42.708;23.360;2023-08-06T09:19:55;3.15;;;2.60;;
36191;SDS011;22233;42.708;23.360;2023-08-06T09:22:21;3.38;;;2.47;;
36191;SDS011;22233;42.708;23.360;2023-08-06T09:24:46;2.25;;;2.05;;
36191;SDS011;22233;42.708;23.360;2023-08-06T09:27:12;2.55;;;2.30;;
36191;SDS011;22233;42.708;23.360;2023-08-06T09:29:45;3.65;;;2.22;;
36191;SDS011;22233;42.708;23.360;2023-08-06T09:32:13;2.42;;;2.20;;
36191;SDS011;22233;42.708;23.360;2023-08-06T09:34:39;4.55;;;2.22;;
36191;SDS011;22233;42.708;23.360;2023-08-06T09:37:07;2.65;;;2.15;;
36191;SDS011;22233;42.708;23.360;2023-08-06T09:39:34;1.95;;;1.80;;
36191;SDS011;22233;42.708;23.360;2023-08-06T09:42:00;2.33;;;1.88;;
36191;SDS011;22233;42.708;23.360;2023-08-06T09:44:27;4.20;;;2.25;;
36191;SDS011;22233;42.708;23.360;2023-08-06T09:46:55;3.22;;;2.38;;
36191;SDS011;22233;42.708;23.360;2023-08-06T09:49:25;8.20;;;3.95;;
36191;SDS011;22233;42.708;23.360;2023-08-06T09:51:52;3.38;;;2.58;;
36191;SDS011;22233;42.708;23.360;2023-08-06T09:54:20;3.25;;;2.13;;
36191;SDS011;22233;42.708;23.360;2023-08-06T09:59:13;2.15;;;1.88;;
36191;SDS011;22233;42.708;23.360;2023-08-06T10:01:40;3.10;;;1.67;;
36191;SDS011;22233;42.708;23.360;2023-08-06T10:04:06;3.47;;;2.05;;
36191;SDS011;22233;42.708;23.360;2023-08-06T10:06:38;3.55;;;1.90;;
36191;SDS011;22233;42.708;23.360;2023-08-06T10:09:04;2.10;;;1.90;;
36191;SDS011;22233;42.708;23.360;2023-08-06T10:11:30;2.65;;;1.75;;
36191;SDS011;22233;42.708;23.360;2023-08-06T10:14:10;2.70;;;1.55;;
36191;SDS011;22233;42.708;23.360;2023-08-06T10:16:38;3.33;;;2.00;;
36191;SDS011;22233;42.708;23.360;2023-08-06T10:21:32;2.67;;;1.77;;
36191;SDS011;22233;42.708;23.360;2023-08-06T10:23:58;2.03;;;1.58;;
36191;SDS011;22233;42.708;23.360;2023-08-06T10:26:29;9.73;;;3.72;;
36191;SDS011;22233;42.708;23.360;2023-08-06T10:28:55;1.83;;;1.73;;
36191;SDS011;22233;42.708;23.360;2023-08-06T10:34:18;3.45;;;2.00;;
36191;SDS011;22233;42.708;23.360;2023-08-06T10:36:44;5.38;;;1.92;;
36191;SDS011;22233;42.708;23.360;2023-08-06T10:39:12;2.38;;;2.08;;
36191;SDS011;22233;42.708;23.360;2023-08-06T10:41:39;2.95;;;2.30;;
36191;SDS011;22233;42.708;23.360;2023-08-06T10:44:08;4.15;;;1.90;;
36191;SDS011;22233;42.708;23.360;2023-08-06T10:46:34;1.98;;;1.70;;
36191;SDS011;22233;42.708;23.360;2023-08-06T10:49:00;2.15;;;1.95;;
36191;SDS011;22233;42.708;23.360;2023-08-06T10:51:26;2.80;;;1.75;;
36191;SDS011;22233;42.708;23.360;2023-08-06T10:53:52;4.38;;;2.05;;
36191;SDS011;22233;42.708;23.360;2023-08-06T10:56:18;2.10;;;1.67;;
36191;SDS011;22233;42.708;23.360;2023-08-06T10:58:47;2.58;;;1.80;;
36191;SDS011;22233;42.708;23.360;2023-08-06T11:01:13;2.97;;;2.10;;
36191;SDS011;22233;42.708;23.360;2023-08-06T11:03:40;2.08;;;1.88;;
36191;SDS011;22233;42.708;23.360;2023-08-06T11:06:06;3.20;;;2.10;;
36191;SDS011;22233;42.708;23.360;2023-08-06T11:08:33;3.60;;;2.42;;
36191;SDS011;22233;42.708;23.360;2023-08-06T11:11:15;3.63;;;1.83;;
36191;SDS011;22233;42.708;23.360;2023-08-06T11:13:42;3.38;;;2.40;;
36191;SDS011;22233;42.708;23.360;2023-08-06T11:16:12;3.45;;;2.50;;
36191;SDS011;22233;42.708;23.360;2023-08-06T11:18:49;4.93;;;2.55;;
36191;SDS011;22233;42.708;23.360;2023-08-06T11:21:18;4.57;;;2.88;;
36191;SDS011;22233;42.708;23.360;2023-08-06T11:23:44;3.72;;;2.83;;
36191;SDS011;22233;42.708;23.360;2023-08-06T11:26:09;3.05;;;2.75;;
36191;SDS011;22233;42.708;23.360;2023-08-06T11:28:35;5.00;;;2.95;;
36191;SDS011;22233;42.708;23.360;2023-08-06T11:31:00;5.40;;;3.30;;
36191;SDS011;22233;42.708;23.360;2023-08-06T11:33:27;5.68;;;3.60;;
36191;SDS011;22233;42.708;23.360;2023-08-06T11:35:57;4.10;;;3.70;;
36191;SDS011;22233;42.708;23.360;2023-08-06T11:38:29;3.55;;;3.20;;
36191;SDS011;22233;42.708;23.360;2023-08-06T11:40:54;4.15;;;3.70;;
36191;SDS011;22233;42.708;23.360;2023-08-06T11:43:20;4.40;;;3.60;;
36191;SDS011;22233;42.708;23.360;2023-08-06T11:45:48;3.42;;;3.13;;
36191;SDS011;22233;42.708;23.360;2023-08-06T11:48:19;3.97;;;3.53;;
36191;SDS011;22233;42.708;23.360;2023-08-06T11:50:44;3.55;;;3.25;;
36191;SDS011;22233;42.708;23.360;2023-08-06T11:53:12;5.78;;;3.20;;
36191;SDS011;22233;42.708;23.360;2023-08-06T11:55:39;4.32;;;3.92;;
36191;SDS011;22233;42.708;23.360;2023-08-06T11:58:05;3.97;;;3.58;;
36191;SDS011;22233;42.708;23.360;2023-08-06T12:00:30;3.83;;;3.40;;
36191;SDS011;22233;42.708;23.360;2023-08-06T12:02:56;3.92;;;3.40;;
36191;SDS011;22233;42.708;23.360;2023-08-06T12:05:23;5.20;;;3.45;;
36191;SDS011;22233;42.708;23.360;2023-08-06T12:07:56;7.68;;;4.03;;
36191;SDS011;22233;42.708;23.360;2023-08-06T12:10:26;3.67;;;3.35;;
36191;SDS011;22233;42.708;23.360;2023-08-06T12:12:55;4.07;;;3.67;;
36191;SDS011;22233;42.708;23.360;2023-08-06T12:15:21;4.38;;;3.08;;
36191;SDS011;22233;42.708;23.360;2023-08-06T12:17:47;3.75;;;3.42;;
36191;SDS011;22233;42.708;23.360;2023-08-06T12:20:13;4.57;;;4.03;;
36191;SDS011;22233;42.708;23.360;2023-08-06T12:22:38;5.65;;;3.67;;
36191;SDS011;22233;42.708;23.360;2023-08-06T12:25:05;5.07;;;4.00;;
36191;SDS011;22233;42.708;23.360;2023-08-06T12:27:36;6.22;;;4.60;;
36191;SDS011;22233;42.708;23.360;2023-08-06T12:30:06;9.45;;;5.15;;
36191;SDS011;22233;42.708;23.360;2023-08-06T12:32:33;5.05;;;4.65;;
36191;SDS011;22233;42.708;23.360;2023-08-06T12:34:59;5.72;;;4.50;;
36191;SDS011;22233;42.708;23.360;2023-08-06T12:37:25;6.33;;;4.70;;
36191;SDS011;22233;42.708;23.360;2023-08-06T12:39:50;4.22;;;3.83;;
36191;SDS011;22233;42.708;23.360;2023-08-06T12:42:16;5.38;;;4.00;;
36191;SDS011;22233;42.708;23.360;2023-08-06T12:44:41;4.70;;;3.83;;
36191;SDS011;22233;42.708;23.360;2023-08-06T12:47:07;4.85;;;4.32;;
36191;SDS011;22233;42.708;23.360;2023-08-06T12:49:33;4.88;;;4.43;;
36191;SDS011;22233;42.708;23.360;2023-08-06T12:51:58;5.47;;;4.38;;
36191;SDS011;22233;42.708;23.360;2023-08-06T12:54:27;6.18;;;4.40;;
36191;SDS011;22233;42.708;23.360;2023-08-06T12:56:53;5.45;;;4.95;;
36191;SDS011;22233;42.708;23.360;2023-08-06T12:59:18;4.88;;;3.80;;
36191;SDS011;22233;42.708;23.360;2023-08-06T13:01:44;4.95;;;3.88;;
36191;SDS011;22233;42.708;23.360;2023-08-06T13:04:10;4.47;;;4.07;;
36191;SDS011;22233;42.708;23.360;2023-08-06T13:06:37;4.65;;;3.90;;
36191;SDS011;22233;42.708;23.360;2023-08-06T13:09:04;5.18;;;3.88;;
36191;SDS011;22233;42.708;23.360;2023-08-06T13:11:30;8.15;;;4.28;;
36191;SDS011;22233;42.708;23.360;2023-08-06T13:14:03;4.60;;;4.20;;
36191;SDS011;22233;42.708;23.360;2023-08-06T13:16:30;5.45;;;3.60;;
36191;SDS011;22233;42.708;23.360;2023-08-06T13:18:56;3.50;;;3.20;;
36191;SDS011;22233;42.708;23.360;2023-08-06T13:21:21;3.78;;;3.47;;
36191;SDS011;22233;42.708;23.360;2023-08-06T13:23:46;6.90;;;4.00;;
36191;SDS011;22233;42.708;23.360;2023-08-06T13:26:12;5.43;;;3.85;;
36191;SDS011;22233;42.708;23.360;2023-08-06T13:28:38;3.65;;;3.20;;
36191;SDS011;22233;42.708;23.360;2023-08-06T13:31:03;3.55;;;3.25;;
36191;SDS011;22233;42.708;23.360;2023-08-06T13:33:29;4.22;;;3.80;;
36191;SDS011;22233;42.708;23.360;2023-08-06T13:35:54;6.47;;;4.03;;
36191;SDS011;22233;42.708;23.360;2023-08-06T13:38:19;5.63;;;4.10;;
36191;SDS011;22233;42.708;23.360;2023-08-06T13:40:45;8.63;;;4.75;;
36191;SDS011;22233;42.708;23.360;2023-08-06T13:43:11;8.15;;;4.28;;
36191;SDS011;22233;42.708;23.360;2023-08-06T13:45:37;4.03;;;3.50;;
36191;SDS011;22233;42.708;23.360;2023-08-06T13:48:03;4.22;;;3.70;;
36191;SDS011;22233;42.708;23.360;2023-08-06T13:50:28;5.68;;;3.65;;
36191;SDS011;22233;42.708;23.360;2023-08-06T13:52:54;8.65;;;5.00;;
36191;SDS011;22233;42.708;23.360;2023-08-06T13:55:20;10.23;;;4.80;;
36191;SDS011;22233;42.708;23.360;2023-08-06T13:57:46;10.93;;;5.07;;
36191;SDS011;22233;42.708;23.360;2023-08-06T14:00:12;5.55;;;3.70;;
36191;SDS011;22233;42.708;23.360;2023-08-06T14:02:37;4.65;;;3.50;;
36191;SDS011;22233;42.708;23.360;2023-08-06T14:05:03;4.75;;;3.20;;
36191;SDS011;22233;42.708;23.360;2023-08-06T14:07:29;8.45;;;4.03;;
36191;SDS011;22233;42.708;23.360;2023-08-06T14:09:54;5.50;;;3.78;;
36191;SDS011;22233;42.708;23.360;2023-08-06T14:12:22;4.95;;;4.00;;
36191;SDS011;22233;42.708;23.360;2023-08-06T14:14:47;5.95;;;3.72;;
36191;SDS011;22233;42.708;23.360;2023-08-06T14:17:12;4.07;;;3.72;;
36191;SDS011;22233;42.708;23.360;2023-08-06T14:19:38;6.15;;;4.47;;
36191;SDS011;22233;42.708;23.360;2023-08-06T14:22:03;5.28;;;3.50;;
36191;SDS011;22233;42.708;23.360;2023-08-06T14:24:29;3.58;;;3.28;;
36191;SDS011;22233;42.708;23.360;2023-08-06T14:26:54;4.00;;;3.55;;
36191;SDS011;22233;42.708;23.360;2023-08-06T14:29:19;4.55;;;2.67;;
36191;SDS011;22233;42.708;23.360;2023-08-06T14:31:45;4.97;;;3.05;;
36191;SDS011;22233;42.708;23.360;2023-08-06T14:34:10;5.32;;;2.88;;
36191;SDS011;22233;42.708;23.360;2023-08-06T14:36:36;3.53;;;2.53;;
36191;SDS011;22233;42.708;23.360;2023-08-06T14:39:01;5.18;;;3.25;;
36191;SDS011;22233;42.708;23.360;2023-08-06T14:41:26;3.97;;;2.90;;